<?xml version="1.0" encoding="UTF-8" standalone="no" ?>
<gpx xmlns="http://www.topografix.com/GPX/1/1" xmlns:xsi="http://www.w3.org/2001/XMLSchema-instance" xsi:schemaLocation="http://www.topografix.com/GPX/1/1 http://www.topografix.com/GPX/1/1/gpx.xsd" version="1.1" creator="VisuGPX - https://www.visugpx.com">
  <metadata>
    <name>Steinfort Course</name>
    <desc><![CDATA[réalisé le 25/10/2020]]></desc>
  </metadata>
  <trk>
    <name><![CDATA[Steinfort Course]]></name>
    <trkseg>
      <trkpt lat="49.6618" lon="5.91213">
        <ele>312</ele>
        <time>2020-10-25T09:00:52.000Z</time>
      </trkpt>
      <trkpt lat="49.66172" lon="5.91183">
        <ele>312.20001220703</ele>
        <time>2020-10-25T09:01:07.000Z</time>
      </trkpt>
      <trkpt lat="49.66166" lon="5.91163">
        <ele>312.20001220703</ele>
        <time>2020-10-25T09:01:13.000Z</time>
      </trkpt>
      <trkpt lat="49.66155" lon="5.91138">
        <ele>312.39999389648</ele>
        <time>2020-10-25T09:01:21.000Z</time>
      </trkpt>
      <trkpt lat="49.66145" lon="5.91116">
        <ele>314</ele>
        <time>2020-10-25T09:01:28.000Z</time>
      </trkpt>
      <trkpt lat="49.66159" lon="5.91095">
        <ele>313.79998779297</ele>
        <time>2020-10-25T09:01:36.000Z</time>
      </trkpt>
      <trkpt lat="49.66163" lon="5.9109">
        <ele>313.60000610352</ele>
        <time>2020-10-25T09:01:39.000Z</time>
      </trkpt>
      <trkpt lat="49.66165" lon="5.91072">
        <ele>314.20001220703</ele>
        <time>2020-10-25T09:02:01.000Z</time>
      </trkpt>
      <trkpt lat="49.66166" lon="5.9107">
        <ele>314.20001220703</ele>
        <time>2020-10-25T09:02:02.000Z</time>
      </trkpt>
      <trkpt lat="49.66172" lon="5.91068">
        <ele>313.79998779297</ele>
        <time>2020-10-25T09:02:06.000Z</time>
      </trkpt>
      <trkpt lat="49.66179" lon="5.91065">
        <ele>313.39999389648</ele>
        <time>2020-10-25T09:02:10.000Z</time>
      </trkpt>
      <trkpt lat="49.66185" lon="5.91065">
        <ele>313</ele>
        <time>2020-10-25T09:02:14.000Z</time>
      </trkpt>
      <trkpt lat="49.66192" lon="5.91064">
        <ele>312.60000610352</ele>
        <time>2020-10-25T09:02:18.000Z</time>
      </trkpt>
      <trkpt lat="49.66206" lon="5.91067">
        <ele>311.39999389648</ele>
        <time>2020-10-25T09:02:26.000Z</time>
      </trkpt>
      <trkpt lat="49.66217" lon="5.9107">
        <ele>310.60000610352</ele>
        <time>2020-10-25T09:02:33.000Z</time>
      </trkpt>
      <trkpt lat="49.66229" lon="5.91067">
        <ele>310.79998779297</ele>
        <time>2020-10-25T09:02:39.000Z</time>
      </trkpt>
      <trkpt lat="49.66239" lon="5.9106">
        <ele>311.39999389648</ele>
        <time>2020-10-25T09:02:44.000Z</time>
      </trkpt>
      <trkpt lat="49.66244" lon="5.91053">
        <ele>311.39999389648</ele>
        <time>2020-10-25T09:02:47.000Z</time>
      </trkpt>
      <trkpt lat="49.66263" lon="5.91041">
        <ele>311</ele>
        <time>2020-10-25T09:02:56.000Z</time>
      </trkpt>
      <trkpt lat="49.66272" lon="5.91039">
        <ele>311.20001220703</ele>
        <time>2020-10-25T09:03:00.000Z</time>
      </trkpt>
      <trkpt lat="49.66282" lon="5.91036">
        <ele>312</ele>
        <time>2020-10-25T09:03:05.000Z</time>
      </trkpt>
      <trkpt lat="49.66295" lon="5.91024">
        <ele>312.79998779297</ele>
        <time>2020-10-25T09:03:12.000Z</time>
      </trkpt>
      <trkpt lat="49.6631" lon="5.91012">
        <ele>313.39999389648</ele>
        <time>2020-10-25T09:03:19.000Z</time>
      </trkpt>
      <trkpt lat="49.66327" lon="5.91">
        <ele>313.79998779297</ele>
        <time>2020-10-25T09:03:28.000Z</time>
      </trkpt>
      <trkpt lat="49.66331" lon="5.90998">
        <ele>313.79998779297</ele>
        <time>2020-10-25T09:03:30.000Z</time>
      </trkpt>
      <trkpt lat="49.66343" lon="5.90992">
        <ele>313.79998779297</ele>
        <time>2020-10-25T09:03:36.000Z</time>
      </trkpt>
      <trkpt lat="49.6636" lon="5.90991">
        <ele>313.39999389648</ele>
        <time>2020-10-25T09:03:43.000Z</time>
      </trkpt>
      <trkpt lat="49.66379" lon="5.90984">
        <ele>313.20001220703</ele>
        <time>2020-10-25T09:03:51.000Z</time>
      </trkpt>
      <trkpt lat="49.66381" lon="5.90981">
        <ele>313.20001220703</ele>
        <time>2020-10-25T09:03:52.000Z</time>
      </trkpt>
      <trkpt lat="49.66396" lon="5.90963">
        <ele>312</ele>
        <time>2020-10-25T09:04:01.000Z</time>
      </trkpt>
      <trkpt lat="49.66413" lon="5.90948">
        <ele>311.39999389648</ele>
        <time>2020-10-25T09:04:10.000Z</time>
      </trkpt>
      <trkpt lat="49.66424" lon="5.90926">
        <ele>311.60000610352</ele>
        <time>2020-10-25T09:04:18.000Z</time>
      </trkpt>
      <trkpt lat="49.66431" lon="5.909">
        <ele>312.39999389648</ele>
        <time>2020-10-25T09:04:28.000Z</time>
      </trkpt>
      <trkpt lat="49.66432" lon="5.90895">
        <ele>312.79998779297</ele>
        <time>2020-10-25T09:04:30.000Z</time>
      </trkpt>
      <trkpt lat="49.66436" lon="5.90867">
        <ele>314.20001220703</ele>
        <time>2020-10-25T09:04:41.000Z</time>
      </trkpt>
      <trkpt lat="49.66442" lon="5.90852">
        <ele>314.20001220703</ele>
        <time>2020-10-25T09:04:49.000Z</time>
      </trkpt>
      <trkpt lat="49.66449" lon="5.90824">
        <ele>314.60000610352</ele>
        <time>2020-10-25T09:05:00.000Z</time>
      </trkpt>
      <trkpt lat="49.66459" lon="5.908">
        <ele>315</ele>
        <time>2020-10-25T09:05:11.000Z</time>
      </trkpt>
      <trkpt lat="49.6646" lon="5.90797">
        <ele>315</ele>
        <time>2020-10-25T09:05:13.000Z</time>
      </trkpt>
      <trkpt lat="49.66474" lon="5.90775">
        <ele>315.20001220703</ele>
        <time>2020-10-25T09:05:21.000Z</time>
      </trkpt>
      <trkpt lat="49.66486" lon="5.90754">
        <ele>315.39999389648</ele>
        <time>2020-10-25T09:05:28.000Z</time>
      </trkpt>
      <trkpt lat="49.665" lon="5.90739">
        <ele>314.39999389648</ele>
        <time>2020-10-25T09:05:36.000Z</time>
      </trkpt>
      <trkpt lat="49.66513" lon="5.90719">
        <ele>313.60000610352</ele>
        <time>2020-10-25T09:05:44.000Z</time>
      </trkpt>
      <trkpt lat="49.66517" lon="5.9071">
        <ele>313.60000610352</ele>
        <time>2020-10-25T09:05:49.000Z</time>
      </trkpt>
      <trkpt lat="49.66519" lon="5.90681">
        <ele>315</ele>
        <time>2020-10-25T09:05:59.000Z</time>
      </trkpt>
      <trkpt lat="49.66514" lon="5.90653">
        <ele>317</ele>
        <time>2020-10-25T09:06:07.000Z</time>
      </trkpt>
      <trkpt lat="49.66504" lon="5.90627">
        <ele>318.39999389648</ele>
        <time>2020-10-25T09:06:17.000Z</time>
      </trkpt>
      <trkpt lat="49.66492" lon="5.90604">
        <ele>318.79998779297</ele>
        <time>2020-10-25T09:06:27.000Z</time>
      </trkpt>
      <trkpt lat="49.6648" lon="5.90583">
        <ele>319.39999389648</ele>
        <time>2020-10-25T09:06:38.000Z</time>
      </trkpt>
      <trkpt lat="49.66474" lon="5.90571">
        <ele>319.60000610352</ele>
        <time>2020-10-25T09:06:44.000Z</time>
      </trkpt>
      <trkpt lat="49.66466" lon="5.90557">
        <ele>320</ele>
        <time>2020-10-25T09:06:50.000Z</time>
      </trkpt>
      <trkpt lat="49.66458" lon="5.90543">
        <ele>320.39999389648</ele>
        <time>2020-10-25T09:06:56.000Z</time>
      </trkpt>
      <trkpt lat="49.66448" lon="5.90528">
        <ele>320.79998779297</ele>
        <time>2020-10-25T09:07:03.000Z</time>
      </trkpt>
      <trkpt lat="49.66439" lon="5.9051">
        <ele>321</ele>
        <time>2020-10-25T09:07:10.000Z</time>
      </trkpt>
      <trkpt lat="49.66428" lon="5.90484">
        <ele>321</ele>
        <time>2020-10-25T09:07:19.000Z</time>
      </trkpt>
      <trkpt lat="49.6642" lon="5.90459">
        <ele>321.39999389648</ele>
        <time>2020-10-25T09:07:30.000Z</time>
      </trkpt>
      <trkpt lat="49.66418" lon="5.90447">
        <ele>321.60000610352</ele>
        <time>2020-10-25T09:07:34.000Z</time>
      </trkpt>
      <trkpt lat="49.66416" lon="5.90436">
        <ele>321.79998779297</ele>
        <time>2020-10-25T09:07:38.000Z</time>
      </trkpt>
      <trkpt lat="49.66406" lon="5.90412">
        <ele>321.79998779297</ele>
        <time>2020-10-25T09:07:46.000Z</time>
      </trkpt>
      <trkpt lat="49.66394" lon="5.90391">
        <ele>322</ele>
        <time>2020-10-25T09:07:55.000Z</time>
      </trkpt>
      <trkpt lat="49.66379" lon="5.9037">
        <ele>323</ele>
        <time>2020-10-25T09:08:04.000Z</time>
      </trkpt>
      <trkpt lat="49.6637" lon="5.90346">
        <ele>323.39999389648</ele>
        <time>2020-10-25T09:08:14.000Z</time>
      </trkpt>
      <trkpt lat="49.66369" lon="5.90317">
        <ele>323.20001220703</ele>
        <time>2020-10-25T09:08:24.000Z</time>
      </trkpt>
      <trkpt lat="49.6637" lon="5.90288">
        <ele>322.79998779297</ele>
        <time>2020-10-25T09:08:31.000Z</time>
      </trkpt>
      <trkpt lat="49.6637" lon="5.90277">
        <ele>322.79998779297</ele>
        <time>2020-10-25T09:08:34.000Z</time>
      </trkpt>
      <trkpt lat="49.6637" lon="5.90262">
        <ele>323</ele>
        <time>2020-10-25T09:08:38.000Z</time>
      </trkpt>
      <trkpt lat="49.66372" lon="5.90244">
        <ele>322.60000610352</ele>
        <time>2020-10-25T09:08:44.000Z</time>
      </trkpt>
      <trkpt lat="49.66373" lon="5.90234">
        <ele>322.39999389648</ele>
        <time>2020-10-25T09:08:48.000Z</time>
      </trkpt>
      <trkpt lat="49.66375" lon="5.90222">
        <ele>322.20001220703</ele>
        <time>2020-10-25T09:08:53.000Z</time>
      </trkpt>
      <trkpt lat="49.66376" lon="5.90215">
        <ele>322.39999389648</ele>
        <time>2020-10-25T09:08:56.000Z</time>
      </trkpt>
      <trkpt lat="49.66386" lon="5.90191">
        <ele>321.79998779297</ele>
        <time>2020-10-25T09:09:05.000Z</time>
      </trkpt>
      <trkpt lat="49.66399" lon="5.90169">
        <ele>320.60000610352</ele>
        <time>2020-10-25T09:09:14.000Z</time>
      </trkpt>
      <trkpt lat="49.66413" lon="5.9015">
        <ele>320.79998779297</ele>
        <time>2020-10-25T09:09:23.000Z</time>
      </trkpt>
      <trkpt lat="49.66424" lon="5.90137">
        <ele>320.60000610352</ele>
        <time>2020-10-25T09:09:30.000Z</time>
      </trkpt>
      <trkpt lat="49.6644" lon="5.9012">
        <ele>320</ele>
        <time>2020-10-25T09:09:40.000Z</time>
      </trkpt>
      <trkpt lat="49.66443" lon="5.90117">
        <ele>320.20001220703</ele>
        <time>2020-10-25T09:09:42.000Z</time>
      </trkpt>
      <trkpt lat="49.66461" lon="5.90103">
        <ele>320.39999389648</ele>
        <time>2020-10-25T09:09:50.000Z</time>
      </trkpt>
      <trkpt lat="49.66477" lon="5.90089">
        <ele>320</ele>
        <time>2020-10-25T09:09:59.000Z</time>
      </trkpt>
      <trkpt lat="49.66482" lon="5.90086">
        <ele>319.79998779297</ele>
        <time>2020-10-25T09:10:02.000Z</time>
      </trkpt>
      <trkpt lat="49.66492" lon="5.90079">
        <ele>320.20001220703</ele>
        <time>2020-10-25T09:10:08.000Z</time>
      </trkpt>
      <trkpt lat="49.66509" lon="5.90065">
        <ele>321.39999389648</ele>
        <time>2020-10-25T09:10:17.000Z</time>
      </trkpt>
      <trkpt lat="49.66519" lon="5.9005">
        <ele>322.79998779297</ele>
        <time>2020-10-25T09:10:24.000Z</time>
      </trkpt>
      <trkpt lat="49.6653" lon="5.90028">
        <ele>324.60000610352</ele>
        <time>2020-10-25T09:10:33.000Z</time>
      </trkpt>
      <trkpt lat="49.66537" lon="5.90007">
        <ele>327</ele>
        <time>2020-10-25T09:10:41.000Z</time>
      </trkpt>
      <trkpt lat="49.66539" lon="5.89999">
        <ele>327.60000610352</ele>
        <time>2020-10-25T09:10:45.000Z</time>
      </trkpt>
      <trkpt lat="49.66542" lon="5.89992">
        <ele>328.20001220703</ele>
        <time>2020-10-25T09:10:50.000Z</time>
      </trkpt>
      <trkpt lat="49.66541" lon="5.89998">
        <ele>327.60000610352</ele>
        <time>2020-10-25T09:10:56.000Z</time>
      </trkpt>
      <trkpt lat="49.66538" lon="5.90008">
        <ele>326.60000610352</ele>
        <time>2020-10-25T09:11:01.000Z</time>
      </trkpt>
      <trkpt lat="49.66534" lon="5.90038">
        <ele>323.39999389648</ele>
        <time>2020-10-25T09:11:11.000Z</time>
      </trkpt>
      <trkpt lat="49.66528" lon="5.90064">
        <ele>320.39999389648</ele>
        <time>2020-10-25T09:11:20.000Z</time>
      </trkpt>
      <trkpt lat="49.66525" lon="5.90073">
        <ele>319</ele>
        <time>2020-10-25T09:11:23.000Z</time>
      </trkpt>
      <trkpt lat="49.66524" lon="5.90075">
        <ele>318.60000610352</ele>
        <time>2020-10-25T09:11:24.000Z</time>
      </trkpt>
      <trkpt lat="49.66525" lon="5.90079">
        <ele>317.79998779297</ele>
        <time>2020-10-25T09:11:26.000Z</time>
      </trkpt>
      <trkpt lat="49.66526" lon="5.9008">
        <ele>317.60000610352</ele>
        <time>2020-10-25T09:11:27.000Z</time>
      </trkpt>
      <trkpt lat="49.66533" lon="5.9008">
        <ele>317</ele>
        <time>2020-10-25T09:11:32.000Z</time>
      </trkpt>
      <trkpt lat="49.66552" lon="5.90077">
        <ele>317</ele>
        <time>2020-10-25T09:11:43.000Z</time>
      </trkpt>
      <trkpt lat="49.66553" lon="5.90077">
        <ele>317</ele>
        <time>2020-10-25T09:11:44.000Z</time>
      </trkpt>
      <trkpt lat="49.66562" lon="5.90074">
        <ele>316.60000610352</ele>
        <time>2020-10-25T09:11:49.000Z</time>
      </trkpt>
      <trkpt lat="49.6657" lon="5.90077">
        <ele>315.60000610352</ele>
        <time>2020-10-25T09:11:55.000Z</time>
      </trkpt>
      <trkpt lat="49.66579" lon="5.90077">
        <ele>314.60000610352</ele>
        <time>2020-10-25T09:12:02.000Z</time>
      </trkpt>
      <trkpt lat="49.66581" lon="5.90078">
        <ele>314.39999389648</ele>
        <time>2020-10-25T09:12:04.000Z</time>
      </trkpt>
      <trkpt lat="49.66583" lon="5.90079">
        <ele>314</ele>
        <time>2020-10-25T09:12:06.000Z</time>
      </trkpt>
      <trkpt lat="49.66584" lon="5.9008">
        <ele>314</ele>
        <time>2020-10-25T09:12:07.000Z</time>
      </trkpt>
      <trkpt lat="49.66585" lon="5.9008">
        <ele>313.79998779297</ele>
        <time>2020-10-25T09:12:08.000Z</time>
      </trkpt>
      <trkpt lat="49.66586" lon="5.90081">
        <ele>313.60000610352</ele>
        <time>2020-10-25T09:12:10.000Z</time>
      </trkpt>
      <trkpt lat="49.66587" lon="5.90082">
        <ele>313.39999389648</ele>
        <time>2020-10-25T09:12:11.000Z</time>
      </trkpt>
      <trkpt lat="49.6659" lon="5.90085">
        <ele>312.79998779297</ele>
        <time>2020-10-25T09:12:13.000Z</time>
      </trkpt>
      <trkpt lat="49.66593" lon="5.90086">
        <ele>312.39999389648</ele>
        <time>2020-10-25T09:12:15.000Z</time>
      </trkpt>
      <trkpt lat="49.666" lon="5.90085">
        <ele>311.79998779297</ele>
        <time>2020-10-25T09:12:19.000Z</time>
      </trkpt>
      <trkpt lat="49.66606" lon="5.90082">
        <ele>311.60000610352</ele>
        <time>2020-10-25T09:12:23.000Z</time>
      </trkpt>
      <trkpt lat="49.66606" lon="5.90079">
        <ele>311.79998779297</ele>
        <time>2020-10-25T09:12:25.000Z</time>
      </trkpt>
      <trkpt lat="49.666" lon="5.90067">
        <ele>313.79998779297</ele>
        <time>2020-10-25T09:12:32.000Z</time>
      </trkpt>
      <trkpt lat="49.66595" lon="5.9006">
        <ele>315</ele>
        <time>2020-10-25T09:12:37.000Z</time>
      </trkpt>
      <trkpt lat="49.6659" lon="5.90052">
        <ele>316.39999389648</ele>
        <time>2020-10-25T09:12:43.000Z</time>
      </trkpt>
      <trkpt lat="49.66582" lon="5.90025">
        <ele>320.39999389648</ele>
        <time>2020-10-25T09:12:58.000Z</time>
      </trkpt>
      <trkpt lat="49.66578" lon="5.90009">
        <ele>322</ele>
        <time>2020-10-25T09:13:05.000Z</time>
      </trkpt>
      <trkpt lat="49.66574" lon="5.8999">
        <ele>323</ele>
        <time>2020-10-25T09:13:12.000Z</time>
      </trkpt>
      <trkpt lat="49.66571" lon="5.89962">
        <ele>324.20001220703</ele>
        <time>2020-10-25T09:13:22.000Z</time>
      </trkpt>
      <trkpt lat="49.66565" lon="5.89935">
        <ele>326</ele>
        <time>2020-10-25T09:13:32.000Z</time>
      </trkpt>
      <trkpt lat="49.66565" lon="5.89904">
        <ele>326</ele>
        <time>2020-10-25T09:13:42.000Z</time>
      </trkpt>
      <trkpt lat="49.66566" lon="5.89876">
        <ele>324.20001220703</ele>
        <time>2020-10-25T09:13:50.000Z</time>
      </trkpt>
      <trkpt lat="49.66562" lon="5.89853">
        <ele>323.39999389648</ele>
        <time>2020-10-25T09:14:00.000Z</time>
      </trkpt>
      <trkpt lat="49.66561" lon="5.89847">
        <ele>323.39999389648</ele>
        <time>2020-10-25T09:14:03.000Z</time>
      </trkpt>
      <trkpt lat="49.66558" lon="5.89842">
        <ele>323.79998779297</ele>
        <time>2020-10-25T09:14:06.000Z</time>
      </trkpt>
      <trkpt lat="49.66558" lon="5.89839">
        <ele>323.60000610352</ele>
        <time>2020-10-25T09:14:07.000Z</time>
      </trkpt>
      <trkpt lat="49.66561" lon="5.8981">
        <ele>321</ele>
        <time>2020-10-25T09:14:16.000Z</time>
      </trkpt>
      <trkpt lat="49.66568" lon="5.8978">
        <ele>314.20001220703</ele>
        <time>2020-10-25T09:14:23.000Z</time>
      </trkpt>
      <trkpt lat="49.66579" lon="5.89754">
        <ele>308.39999389648</ele>
        <time>2020-10-25T09:14:30.000Z</time>
      </trkpt>
      <trkpt lat="49.6658" lon="5.89749">
        <ele>308</ele>
        <time>2020-10-25T09:14:31.000Z</time>
      </trkpt>
      <trkpt lat="49.66593" lon="5.89727">
        <ele>305.39999389648</ele>
        <time>2020-10-25T09:14:38.000Z</time>
      </trkpt>
      <trkpt lat="49.6661" lon="5.89711">
        <ele>304</ele>
        <time>2020-10-25T09:14:45.000Z</time>
      </trkpt>
      <trkpt lat="49.66626" lon="5.89693">
        <ele>306</ele>
        <time>2020-10-25T09:14:54.000Z</time>
      </trkpt>
      <trkpt lat="49.6664" lon="5.8967">
        <ele>309</ele>
        <time>2020-10-25T09:15:04.000Z</time>
      </trkpt>
      <trkpt lat="49.66643" lon="5.89664">
        <ele>309.79998779297</ele>
        <time>2020-10-25T09:15:06.000Z</time>
      </trkpt>
      <trkpt lat="49.66649" lon="5.89652">
        <ele>310.79998779297</ele>
        <time>2020-10-25T09:15:11.000Z</time>
      </trkpt>
      <trkpt lat="49.66657" lon="5.89641">
        <ele>311.60000610352</ele>
        <time>2020-10-25T09:15:16.000Z</time>
      </trkpt>
      <trkpt lat="49.66665" lon="5.8963">
        <ele>312.60000610352</ele>
        <time>2020-10-25T09:15:21.000Z</time>
      </trkpt>
      <trkpt lat="49.6668" lon="5.89612">
        <ele>314.20001220703</ele>
        <time>2020-10-25T09:15:30.000Z</time>
      </trkpt>
      <trkpt lat="49.66697" lon="5.89598">
        <ele>314</ele>
        <time>2020-10-25T09:15:39.000Z</time>
      </trkpt>
      <trkpt lat="49.66701" lon="5.89595">
        <ele>314</ele>
        <time>2020-10-25T09:15:41.000Z</time>
      </trkpt>
      <trkpt lat="49.66709" lon="5.89584">
        <ele>314.20001220703</ele>
        <time>2020-10-25T09:15:46.000Z</time>
      </trkpt>
      <trkpt lat="49.66715" lon="5.89578">
        <ele>314</ele>
        <time>2020-10-25T09:15:50.000Z</time>
      </trkpt>
      <trkpt lat="49.66721" lon="5.89574">
        <ele>313.79998779297</ele>
        <time>2020-10-25T09:15:54.000Z</time>
      </trkpt>
      <trkpt lat="49.66728" lon="5.89571">
        <ele>313.20001220703</ele>
        <time>2020-10-25T09:15:58.000Z</time>
      </trkpt>
      <trkpt lat="49.66737" lon="5.89575">
        <ele>312</ele>
        <time>2020-10-25T09:16:03.000Z</time>
      </trkpt>
      <trkpt lat="49.66743" lon="5.89581">
        <ele>310.79998779297</ele>
        <time>2020-10-25T09:16:07.000Z</time>
      </trkpt>
      <trkpt lat="49.66747" lon="5.89579">
        <ele>310.60000610352</ele>
        <time>2020-10-25T09:16:09.000Z</time>
      </trkpt>
      <trkpt lat="49.66747" lon="5.8955">
        <ele>312.39999389648</ele>
        <time>2020-10-25T09:16:19.000Z</time>
      </trkpt>
      <trkpt lat="49.66746" lon="5.89542">
        <ele>312.60000610352</ele>
        <time>2020-10-25T09:16:22.000Z</time>
      </trkpt>
      <trkpt lat="49.66739" lon="5.89515">
        <ele>313.60000610352</ele>
        <time>2020-10-25T09:16:32.000Z</time>
      </trkpt>
      <trkpt lat="49.66736" lon="5.8951">
        <ele>314</ele>
        <time>2020-10-25T09:16:34.000Z</time>
      </trkpt>
      <trkpt lat="49.66732" lon="5.89502">
        <ele>314.60000610352</ele>
        <time>2020-10-25T09:16:37.000Z</time>
      </trkpt>
      <trkpt lat="49.66727" lon="5.89496">
        <ele>315.20001220703</ele>
        <time>2020-10-25T09:16:41.000Z</time>
      </trkpt>
      <trkpt lat="49.66714" lon="5.89477">
        <ele>317</ele>
        <time>2020-10-25T09:16:54.000Z</time>
      </trkpt>
      <trkpt lat="49.66704" lon="5.8947">
        <ele>317.60000610352</ele>
        <time>2020-10-25T09:17:02.000Z</time>
      </trkpt>
      <trkpt lat="49.66688" lon="5.89461">
        <ele>319.20001220703</ele>
        <time>2020-10-25T09:17:15.000Z</time>
      </trkpt>
      <trkpt lat="49.66683" lon="5.89461">
        <ele>319.79998779297</ele>
        <time>2020-10-25T09:17:19.000Z</time>
      </trkpt>
      <trkpt lat="49.66668" lon="5.89441">
        <ele>321</ele>
        <time>2020-10-25T09:17:27.000Z</time>
      </trkpt>
      <trkpt lat="49.66652" lon="5.8942">
        <ele>322</ele>
        <time>2020-10-25T09:17:35.000Z</time>
      </trkpt>
      <trkpt lat="49.66643" lon="5.89402">
        <ele>322.20001220703</ele>
        <time>2020-10-25T09:17:40.000Z</time>
      </trkpt>
      <trkpt lat="49.66635" lon="5.89392">
        <ele>322.60000610352</ele>
        <time>2020-10-25T09:17:44.000Z</time>
      </trkpt>
      <trkpt lat="49.66625" lon="5.89368">
        <ele>324.39999389648</ele>
        <time>2020-10-25T09:17:54.000Z</time>
      </trkpt>
      <trkpt lat="49.66619" lon="5.89337">
        <ele>325.60000610352</ele>
        <time>2020-10-25T09:18:03.000Z</time>
      </trkpt>
      <trkpt lat="49.66617" lon="5.89308">
        <ele>326.39999389648</ele>
        <time>2020-10-25T09:18:12.000Z</time>
      </trkpt>
      <trkpt lat="49.66617" lon="5.89306">
        <ele>326.39999389648</ele>
        <time>2020-10-25T09:18:13.000Z</time>
      </trkpt>
      <trkpt lat="49.6662" lon="5.89277">
        <ele>328</ele>
        <time>2020-10-25T09:18:23.000Z</time>
      </trkpt>
      <trkpt lat="49.66622" lon="5.89261">
        <ele>328.39999389648</ele>
        <time>2020-10-25T09:18:27.000Z</time>
      </trkpt>
      <trkpt lat="49.66628" lon="5.89244">
        <ele>327.79998779297</ele>
        <time>2020-10-25T09:18:32.000Z</time>
      </trkpt>
      <trkpt lat="49.66638" lon="5.8922">
        <ele>325.60000610352</ele>
        <time>2020-10-25T09:18:39.000Z</time>
      </trkpt>
      <trkpt lat="49.66647" lon="5.89202">
        <ele>323.60000610352</ele>
        <time>2020-10-25T09:18:44.000Z</time>
      </trkpt>
      <trkpt lat="49.66653" lon="5.89192">
        <ele>322</ele>
        <time>2020-10-25T09:18:48.000Z</time>
      </trkpt>
      <trkpt lat="49.66661" lon="5.89183">
        <ele>320</ele>
        <time>2020-10-25T09:18:53.000Z</time>
      </trkpt>
      <trkpt lat="49.66663" lon="5.89179">
        <ele>319.79998779297</ele>
        <time>2020-10-25T09:18:55.000Z</time>
      </trkpt>
      <trkpt lat="49.66678" lon="5.89163">
        <ele>316.60000610352</ele>
        <time>2020-10-25T09:19:03.000Z</time>
      </trkpt>
      <trkpt lat="49.66695" lon="5.89154">
        <ele>312.20001220703</ele>
        <time>2020-10-25T09:19:09.000Z</time>
      </trkpt>
      <trkpt lat="49.66698" lon="5.89153">
        <ele>311.20001220703</ele>
        <time>2020-10-25T09:19:10.000Z</time>
      </trkpt>
      <trkpt lat="49.66716" lon="5.89146">
        <ele>309.79998779297</ele>
        <time>2020-10-25T09:19:17.000Z</time>
      </trkpt>
      <trkpt lat="49.66732" lon="5.89131">
        <ele>309</ele>
        <time>2020-10-25T09:19:27.000Z</time>
      </trkpt>
      <trkpt lat="49.66749" lon="5.89117">
        <ele>309.20001220703</ele>
        <time>2020-10-25T09:19:34.000Z</time>
      </trkpt>
      <trkpt lat="49.66766" lon="5.89103">
        <ele>309.39999389648</ele>
        <time>2020-10-25T09:19:42.000Z</time>
      </trkpt>
      <trkpt lat="49.6678" lon="5.89081">
        <ele>310.39999389648</ele>
        <time>2020-10-25T09:19:50.000Z</time>
      </trkpt>
      <trkpt lat="49.66794" lon="5.89062">
        <ele>312.39999389648</ele>
        <time>2020-10-25T09:19:58.000Z</time>
      </trkpt>
      <trkpt lat="49.66809" lon="5.89044">
        <ele>312</ele>
        <time>2020-10-25T09:20:07.000Z</time>
      </trkpt>
      <trkpt lat="49.66827" lon="5.89034">
        <ele>311</ele>
        <time>2020-10-25T09:20:15.000Z</time>
      </trkpt>
      <trkpt lat="49.66832" lon="5.89032">
        <ele>310.60000610352</ele>
        <time>2020-10-25T09:20:17.000Z</time>
      </trkpt>
      <trkpt lat="49.66851" lon="5.89026">
        <ele>309.60000610352</ele>
        <time>2020-10-25T09:20:25.000Z</time>
      </trkpt>
      <trkpt lat="49.66868" lon="5.89018">
        <ele>309.20001220703</ele>
        <time>2020-10-25T09:20:35.000Z</time>
      </trkpt>
      <trkpt lat="49.66869" lon="5.89017">
        <ele>309.39999389648</ele>
        <time>2020-10-25T09:20:36.000Z</time>
      </trkpt>
      <trkpt lat="49.66889" lon="5.89009">
        <ele>310.39999389648</ele>
        <time>2020-10-25T09:20:44.000Z</time>
      </trkpt>
      <trkpt lat="49.669" lon="5.89004">
        <ele>311.20001220703</ele>
        <time>2020-10-25T09:20:49.000Z</time>
      </trkpt>
      <trkpt lat="49.66919" lon="5.89">
        <ele>308.79998779297</ele>
        <time>2020-10-25T09:20:58.000Z</time>
      </trkpt>
      <trkpt lat="49.66929" lon="5.88997">
        <ele>307.39999389648</ele>
        <time>2020-10-25T09:21:03.000Z</time>
      </trkpt>
      <trkpt lat="49.66948" lon="5.88987">
        <ele>304.79998779297</ele>
        <time>2020-10-25T09:21:12.000Z</time>
      </trkpt>
      <trkpt lat="49.66953" lon="5.88979">
        <ele>304.20001220703</ele>
        <time>2020-10-25T09:21:15.000Z</time>
      </trkpt>
      <trkpt lat="49.66953" lon="5.88976">
        <ele>304</ele>
        <time>2020-10-25T09:21:16.000Z</time>
      </trkpt>
      <trkpt lat="49.66946" lon="5.88947">
        <ele>303.79998779297</ele>
        <time>2020-10-25T09:21:28.000Z</time>
      </trkpt>
      <trkpt lat="49.66934" lon="5.88925">
        <ele>305</ele>
        <time>2020-10-25T09:21:40.000Z</time>
      </trkpt>
      <trkpt lat="49.66932" lon="5.88921">
        <ele>305.39999389648</ele>
        <time>2020-10-25T09:21:42.000Z</time>
      </trkpt>
      <trkpt lat="49.6692" lon="5.88909">
        <ele>307.20001220703</ele>
        <time>2020-10-25T09:21:50.000Z</time>
      </trkpt>
      <trkpt lat="49.66904" lon="5.88893">
        <ele>309.79998779297</ele>
        <time>2020-10-25T09:21:59.000Z</time>
      </trkpt>
      <trkpt lat="49.66899" lon="5.8889">
        <ele>310.60000610352</ele>
        <time>2020-10-25T09:22:01.000Z</time>
      </trkpt>
      <trkpt lat="49.66882" lon="5.88873">
        <ele>312.79998779297</ele>
        <time>2020-10-25T09:22:10.000Z</time>
      </trkpt>
      <trkpt lat="49.66873" lon="5.88863">
        <ele>313.60000610352</ele>
        <time>2020-10-25T09:22:15.000Z</time>
      </trkpt>
      <trkpt lat="49.66857" lon="5.88845">
        <ele>314</ele>
        <time>2020-10-25T09:22:24.000Z</time>
      </trkpt>
      <trkpt lat="49.66842" lon="5.88827">
        <ele>314</ele>
        <time>2020-10-25T09:22:33.000Z</time>
      </trkpt>
      <trkpt lat="49.66826" lon="5.88808">
        <ele>314</ele>
        <time>2020-10-25T09:22:42.000Z</time>
      </trkpt>
      <trkpt lat="49.66817" lon="5.88798">
        <ele>314.20001220703</ele>
        <time>2020-10-25T09:22:46.000Z</time>
      </trkpt>
      <trkpt lat="49.66811" lon="5.88788">
        <ele>314.39999389648</ele>
        <time>2020-10-25T09:22:50.000Z</time>
      </trkpt>
      <trkpt lat="49.66807" lon="5.88781">
        <ele>314.39999389648</ele>
        <time>2020-10-25T09:22:53.000Z</time>
      </trkpt>
      <trkpt lat="49.66802" lon="5.88768">
        <ele>314.39999389648</ele>
        <time>2020-10-25T09:22:58.000Z</time>
      </trkpt>
      <trkpt lat="49.66797" lon="5.88756">
        <ele>314.39999389648</ele>
        <time>2020-10-25T09:23:03.000Z</time>
      </trkpt>
      <trkpt lat="49.66789" lon="5.88726">
        <ele>313.79998779297</ele>
        <time>2020-10-25T09:23:13.000Z</time>
      </trkpt>
      <trkpt lat="49.66787" lon="5.88699">
        <ele>313.20001220703</ele>
        <time>2020-10-25T09:23:22.000Z</time>
      </trkpt>
      <trkpt lat="49.66786" lon="5.88669">
        <ele>312.79998779297</ele>
        <time>2020-10-25T09:23:30.000Z</time>
      </trkpt>
      <trkpt lat="49.66789" lon="5.88649">
        <ele>311.60000610352</ele>
        <time>2020-10-25T09:23:37.000Z</time>
      </trkpt>
      <trkpt lat="49.66792" lon="5.88632">
        <ele>309.79998779297</ele>
        <time>2020-10-25T09:23:43.000Z</time>
      </trkpt>
      <trkpt lat="49.66793" lon="5.8863">
        <ele>309.39999389648</ele>
        <time>2020-10-25T09:23:44.000Z</time>
      </trkpt>
      <trkpt lat="49.66799" lon="5.88602">
        <ele>306</ele>
        <time>2020-10-25T09:23:52.000Z</time>
      </trkpt>
      <trkpt lat="49.66805" lon="5.88573">
        <ele>302.79998779297</ele>
        <time>2020-10-25T09:23:59.000Z</time>
      </trkpt>
      <trkpt lat="49.66807" lon="5.88542">
        <ele>305</ele>
        <time>2020-10-25T09:24:06.000Z</time>
      </trkpt>
      <trkpt lat="49.66815" lon="5.88519">
        <ele>308</ele>
        <time>2020-10-25T09:24:12.000Z</time>
      </trkpt>
      <trkpt lat="49.66825" lon="5.88506">
        <ele>308</ele>
        <time>2020-10-25T09:24:17.000Z</time>
      </trkpt>
      <trkpt lat="49.66831" lon="5.88496">
        <ele>306.79998779297</ele>
        <time>2020-10-25T09:24:21.000Z</time>
      </trkpt>
      <trkpt lat="49.66836" lon="5.88486">
        <ele>305.79998779297</ele>
        <time>2020-10-25T09:24:25.000Z</time>
      </trkpt>
      <trkpt lat="49.66846" lon="5.88462">
        <ele>305.20001220703</ele>
        <time>2020-10-25T09:24:33.000Z</time>
      </trkpt>
      <trkpt lat="49.6686" lon="5.88441">
        <ele>303.39999389648</ele>
        <time>2020-10-25T09:24:41.000Z</time>
      </trkpt>
      <trkpt lat="49.66873" lon="5.88419">
        <ele>303</ele>
        <time>2020-10-25T09:24:49.000Z</time>
      </trkpt>
      <trkpt lat="49.66884" lon="5.88394">
        <ele>304.39999389648</ele>
        <time>2020-10-25T09:24:59.000Z</time>
      </trkpt>
      <trkpt lat="49.66893" lon="5.88369">
        <ele>304.79998779297</ele>
        <time>2020-10-25T09:25:12.000Z</time>
      </trkpt>
      <trkpt lat="49.66901" lon="5.88344">
        <ele>305.79998779297</ele>
        <time>2020-10-25T09:25:25.000Z</time>
      </trkpt>
      <trkpt lat="49.6691" lon="5.88318">
        <ele>306.20001220703</ele>
        <time>2020-10-25T09:25:35.000Z</time>
      </trkpt>
      <trkpt lat="49.66918" lon="5.88293">
        <ele>306.60000610352</ele>
        <time>2020-10-25T09:25:43.000Z</time>
      </trkpt>
      <trkpt lat="49.66918" lon="5.88289">
        <ele>306.79998779297</ele>
        <time>2020-10-25T09:25:44.000Z</time>
      </trkpt>
      <trkpt lat="49.6692" lon="5.88282">
        <ele>307</ele>
        <time>2020-10-25T09:25:46.000Z</time>
      </trkpt>
      <trkpt lat="49.66925" lon="5.88255">
        <ele>307.60000610352</ele>
        <time>2020-10-25T09:25:54.000Z</time>
      </trkpt>
      <trkpt lat="49.6693" lon="5.88226">
        <ele>308.39999389648</ele>
        <time>2020-10-25T09:26:03.000Z</time>
      </trkpt>
      <trkpt lat="49.6693" lon="5.88218">
        <ele>309</ele>
        <time>2020-10-25T09:26:06.000Z</time>
      </trkpt>
      <trkpt lat="49.66928" lon="5.88196">
        <ele>311.39999389648</ele>
        <time>2020-10-25T09:26:13.000Z</time>
      </trkpt>
      <trkpt lat="49.66926" lon="5.88182">
        <ele>312.39999389648</ele>
        <time>2020-10-25T09:26:18.000Z</time>
      </trkpt>
      <trkpt lat="49.66924" lon="5.88163">
        <ele>313.20001220703</ele>
        <time>2020-10-25T09:26:24.000Z</time>
      </trkpt>
      <trkpt lat="49.66921" lon="5.88132">
        <ele>313.79998779297</ele>
        <time>2020-10-25T09:26:33.000Z</time>
      </trkpt>
      <trkpt lat="49.66918" lon="5.88114">
        <ele>313</ele>
        <time>2020-10-25T09:26:38.000Z</time>
      </trkpt>
      <trkpt lat="49.66914" lon="5.88098">
        <ele>313.39999389648</ele>
        <time>2020-10-25T09:26:42.000Z</time>
      </trkpt>
      <trkpt lat="49.66906" lon="5.88082">
        <ele>315</ele>
        <time>2020-10-25T09:26:47.000Z</time>
      </trkpt>
      <trkpt lat="49.66894" lon="5.88061">
        <ele>318</ele>
        <time>2020-10-25T09:26:54.000Z</time>
      </trkpt>
      <trkpt lat="49.66878" lon="5.88041">
        <ele>319</ele>
        <time>2020-10-25T09:27:02.000Z</time>
      </trkpt>
      <trkpt lat="49.66873" lon="5.88024">
        <ele>316.60000610352</ele>
        <time>2020-10-25T09:27:08.000Z</time>
      </trkpt>
      <trkpt lat="49.66882" lon="5.87996">
        <ele>307.60000610352</ele>
        <time>2020-10-25T09:27:16.000Z</time>
      </trkpt>
      <trkpt lat="49.66891" lon="5.87968">
        <ele>302.39999389648</ele>
        <time>2020-10-25T09:27:24.000Z</time>
      </trkpt>
      <trkpt lat="49.66892" lon="5.87961">
        <ele>302.60000610352</ele>
        <time>2020-10-25T09:27:26.000Z</time>
      </trkpt>
      <trkpt lat="49.66897" lon="5.87931">
        <ele>303</ele>
        <time>2020-10-25T09:27:34.000Z</time>
      </trkpt>
      <trkpt lat="49.66903" lon="5.87902">
        <ele>302.79998779297</ele>
        <time>2020-10-25T09:27:42.000Z</time>
      </trkpt>
      <trkpt lat="49.66913" lon="5.87882">
        <ele>302.39999389648</ele>
        <time>2020-10-25T09:27:48.000Z</time>
      </trkpt>
      <trkpt lat="49.66928" lon="5.87866">
        <ele>301.79998779297</ele>
        <time>2020-10-25T09:27:55.000Z</time>
      </trkpt>
      <trkpt lat="49.66948" lon="5.87858">
        <ele>295.79998779297</ele>
        <time>2020-10-25T09:28:03.000Z</time>
      </trkpt>
      <trkpt lat="49.66966" lon="5.87854">
        <ele>295.79998779297</ele>
        <time>2020-10-25T09:28:10.000Z</time>
      </trkpt>
      <trkpt lat="49.6698" lon="5.87853">
        <ele>297.20001220703</ele>
        <time>2020-10-25T09:28:18.000Z</time>
      </trkpt>
      <trkpt lat="49.66981" lon="5.87858">
        <ele>297.20001220703</ele>
        <time>2020-10-25T09:28:21.000Z</time>
      </trkpt>
      <trkpt lat="49.66982" lon="5.87873">
        <ele>296.79998779297</ele>
        <time>2020-10-25T09:28:29.000Z</time>
      </trkpt>
      <trkpt lat="49.66986" lon="5.87903">
        <ele>294.39999389648</ele>
        <time>2020-10-25T09:28:42.000Z</time>
      </trkpt>
      <trkpt lat="49.66992" lon="5.87931">
        <ele>290.60000610352</ele>
        <time>2020-10-25T09:28:50.000Z</time>
      </trkpt>
      <trkpt lat="49.6699" lon="5.87956">
        <ele>290</ele>
        <time>2020-10-25T09:28:57.000Z</time>
      </trkpt>
      <trkpt lat="49.66988" lon="5.87958">
        <ele>290</ele>
        <time>2020-10-25T09:28:58.000Z</time>
      </trkpt>
      <trkpt lat="49.66974" lon="5.87972">
        <ele>290.20001220703</ele>
        <time>2020-10-25T09:29:04.000Z</time>
      </trkpt>
      <trkpt lat="49.66973" lon="5.87975">
        <ele>290.20001220703</ele>
        <time>2020-10-25T09:29:06.000Z</time>
      </trkpt>
      <trkpt lat="49.66983" lon="5.88">
        <ele>289.60000610352</ele>
        <time>2020-10-25T09:29:15.000Z</time>
      </trkpt>
      <trkpt lat="49.66992" lon="5.88024">
        <ele>290.60000610352</ele>
        <time>2020-10-25T09:29:24.000Z</time>
      </trkpt>
      <trkpt lat="49.67002" lon="5.8805">
        <ele>292</ele>
        <time>2020-10-25T09:29:32.000Z</time>
      </trkpt>
      <trkpt lat="49.67012" lon="5.8807">
        <ele>291.20001220703</ele>
        <time>2020-10-25T09:29:39.000Z</time>
      </trkpt>
      <trkpt lat="49.6703" lon="5.88067">
        <ele>288</ele>
        <time>2020-10-25T09:29:47.000Z</time>
      </trkpt>
      <trkpt lat="49.67031" lon="5.88068">
        <ele>287.79998779297</ele>
        <time>2020-10-25T09:29:48.000Z</time>
      </trkpt>
      <trkpt lat="49.67045" lon="5.88087">
        <ele>286.79998779297</ele>
        <time>2020-10-25T09:29:58.000Z</time>
      </trkpt>
      <trkpt lat="49.67057" lon="5.88102">
        <ele>286.60000610352</ele>
        <time>2020-10-25T09:30:05.000Z</time>
      </trkpt>
      <trkpt lat="49.67069" lon="5.88109">
        <ele>286.20001220703</ele>
        <time>2020-10-25T09:30:10.000Z</time>
      </trkpt>
      <trkpt lat="49.67071" lon="5.88111">
        <ele>286.20001220703</ele>
        <time>2020-10-25T09:30:11.000Z</time>
      </trkpt>
      <trkpt lat="49.67079" lon="5.88131">
        <ele>286</ele>
        <time>2020-10-25T09:30:17.000Z</time>
      </trkpt>
      <trkpt lat="49.67077" lon="5.88157">
        <ele>287.60000610352</ele>
        <time>2020-10-25T09:30:24.000Z</time>
      </trkpt>
      <trkpt lat="49.67072" lon="5.88164">
        <ele>288.39999389648</ele>
        <time>2020-10-25T09:30:27.000Z</time>
      </trkpt>
      <trkpt lat="49.67053" lon="5.88168">
        <ele>288.39999389648</ele>
        <time>2020-10-25T09:30:37.000Z</time>
      </trkpt>
      <trkpt lat="49.6704" lon="5.88186">
        <ele>288.20001220703</ele>
        <time>2020-10-25T09:30:44.000Z</time>
      </trkpt>
      <trkpt lat="49.67041" lon="5.88215">
        <ele>289</ele>
        <time>2020-10-25T09:30:52.000Z</time>
      </trkpt>
      <trkpt lat="49.67044" lon="5.88231">
        <ele>290.20001220703</ele>
        <time>2020-10-25T09:30:58.000Z</time>
      </trkpt>
      <trkpt lat="49.6705" lon="5.8826">
        <ele>290.60000610352</ele>
        <time>2020-10-25T09:31:07.000Z</time>
      </trkpt>
      <trkpt lat="49.67057" lon="5.88287">
        <ele>291.60000610352</ele>
        <time>2020-10-25T09:31:15.000Z</time>
      </trkpt>
      <trkpt lat="49.67063" lon="5.88314">
        <ele>292.60000610352</ele>
        <time>2020-10-25T09:31:23.000Z</time>
      </trkpt>
      <trkpt lat="49.67059" lon="5.88343">
        <ele>293.60000610352</ele>
        <time>2020-10-25T09:31:32.000Z</time>
      </trkpt>
      <trkpt lat="49.67062" lon="5.88373">
        <ele>294.60000610352</ele>
        <time>2020-10-25T09:31:40.000Z</time>
      </trkpt>
      <trkpt lat="49.67067" lon="5.88401">
        <ele>296.39999389648</ele>
        <time>2020-10-25T09:31:48.000Z</time>
      </trkpt>
      <trkpt lat="49.67067" lon="5.88431">
        <ele>297.39999389648</ele>
        <time>2020-10-25T09:31:57.000Z</time>
      </trkpt>
      <trkpt lat="49.67067" lon="5.88462">
        <ele>297.39999389648</ele>
        <time>2020-10-25T09:32:06.000Z</time>
      </trkpt>
      <trkpt lat="49.67064" lon="5.88492">
        <ele>298</ele>
        <time>2020-10-25T09:32:14.000Z</time>
      </trkpt>
      <trkpt lat="49.6706" lon="5.88519">
        <ele>299</ele>
        <time>2020-10-25T09:32:22.000Z</time>
      </trkpt>
      <trkpt lat="49.67053" lon="5.88547">
        <ele>299</ele>
        <time>2020-10-25T09:32:30.000Z</time>
      </trkpt>
      <trkpt lat="49.67046" lon="5.88562">
        <ele>298.20001220703</ele>
        <time>2020-10-25T09:32:35.000Z</time>
      </trkpt>
      <trkpt lat="49.67032" lon="5.88581">
        <ele>298.39999389648</ele>
        <time>2020-10-25T09:32:42.000Z</time>
      </trkpt>
      <trkpt lat="49.67015" lon="5.88593">
        <ele>298.79998779297</ele>
        <time>2020-10-25T09:32:50.000Z</time>
      </trkpt>
      <trkpt lat="49.66997" lon="5.88604">
        <ele>298.39999389648</ele>
        <time>2020-10-25T09:32:59.000Z</time>
      </trkpt>
      <trkpt lat="49.66978" lon="5.88602">
        <ele>294.79998779297</ele>
        <time>2020-10-25T09:33:07.000Z</time>
      </trkpt>
      <trkpt lat="49.66974" lon="5.88602">
        <ele>294.20001220703</ele>
        <time>2020-10-25T09:33:09.000Z</time>
      </trkpt>
      <trkpt lat="49.66955" lon="5.88601">
        <ele>290.60000610352</ele>
        <time>2020-10-25T09:33:18.000Z</time>
      </trkpt>
      <trkpt lat="49.66936" lon="5.88599">
        <ele>290</ele>
        <time>2020-10-25T09:33:27.000Z</time>
      </trkpt>
      <trkpt lat="49.66916" lon="5.886">
        <ele>290.20001220703</ele>
        <time>2020-10-25T09:33:35.000Z</time>
      </trkpt>
      <trkpt lat="49.66896" lon="5.88602">
        <ele>289.20001220703</ele>
        <time>2020-10-25T09:33:43.000Z</time>
      </trkpt>
      <trkpt lat="49.66881" lon="5.88621">
        <ele>288.39999389648</ele>
        <time>2020-10-25T09:33:51.000Z</time>
      </trkpt>
      <trkpt lat="49.66874" lon="5.88634">
        <ele>288.20001220703</ele>
        <time>2020-10-25T09:33:57.000Z</time>
      </trkpt>
      <trkpt lat="49.66876" lon="5.88663">
        <ele>289.60000610352</ele>
        <time>2020-10-25T09:34:07.000Z</time>
      </trkpt>
      <trkpt lat="49.66887" lon="5.88686">
        <ele>291.20001220703</ele>
        <time>2020-10-25T09:34:21.000Z</time>
      </trkpt>
      <trkpt lat="49.66903" lon="5.88701">
        <ele>292</ele>
        <time>2020-10-25T09:34:29.000Z</time>
      </trkpt>
      <trkpt lat="49.66921" lon="5.88715">
        <ele>292.79998779297</ele>
        <time>2020-10-25T09:34:35.000Z</time>
      </trkpt>
      <trkpt lat="49.6694" lon="5.88728">
        <ele>293.20001220703</ele>
        <time>2020-10-25T09:34:42.000Z</time>
      </trkpt>
      <trkpt lat="49.66958" lon="5.88739">
        <ele>293.60000610352</ele>
        <time>2020-10-25T09:34:49.000Z</time>
      </trkpt>
      <trkpt lat="49.66975" lon="5.88751">
        <ele>295.20001220703</ele>
        <time>2020-10-25T09:34:59.000Z</time>
      </trkpt>
      <trkpt lat="49.66988" lon="5.88773">
        <ele>296.60000610352</ele>
        <time>2020-10-25T09:35:08.000Z</time>
      </trkpt>
      <trkpt lat="49.67" lon="5.88797">
        <ele>297.79998779297</ele>
        <time>2020-10-25T09:35:16.000Z</time>
      </trkpt>
      <trkpt lat="49.67011" lon="5.88824">
        <ele>296.60000610352</ele>
        <time>2020-10-25T09:35:23.000Z</time>
      </trkpt>
      <trkpt lat="49.67022" lon="5.88848">
        <ele>294.39999389648</ele>
        <time>2020-10-25T09:35:29.000Z</time>
      </trkpt>
      <trkpt lat="49.67029" lon="5.88873">
        <ele>291.60000610352</ele>
        <time>2020-10-25T09:35:36.000Z</time>
      </trkpt>
      <trkpt lat="49.67032" lon="5.88887">
        <ele>290.20001220703</ele>
        <time>2020-10-25T09:35:41.000Z</time>
      </trkpt>
      <trkpt lat="49.67043" lon="5.88911">
        <ele>293</ele>
        <time>2020-10-25T09:35:51.000Z</time>
      </trkpt>
      <trkpt lat="49.67044" lon="5.88913">
        <ele>293.39999389648</ele>
        <time>2020-10-25T09:35:52.000Z</time>
      </trkpt>
      <trkpt lat="49.67053" lon="5.8894">
        <ele>297.39999389648</ele>
        <time>2020-10-25T09:36:03.000Z</time>
      </trkpt>
      <trkpt lat="49.67059" lon="5.88967">
        <ele>300.39999389648</ele>
        <time>2020-10-25T09:36:12.000Z</time>
      </trkpt>
      <trkpt lat="49.67061" lon="5.88978">
        <ele>301.39999389648</ele>
        <time>2020-10-25T09:36:16.000Z</time>
      </trkpt>
      <trkpt lat="49.6706" lon="5.89008">
        <ele>303.39999389648</ele>
        <time>2020-10-25T09:36:23.000Z</time>
      </trkpt>
      <trkpt lat="49.67058" lon="5.89025">
        <ele>305.60000610352</ele>
        <time>2020-10-25T09:36:29.000Z</time>
      </trkpt>
      <trkpt lat="49.67051" lon="5.89051">
        <ele>308.20001220703</ele>
        <time>2020-10-25T09:36:37.000Z</time>
      </trkpt>
      <trkpt lat="49.67045" lon="5.89081">
        <ele>310.60000610352</ele>
        <time>2020-10-25T09:36:45.000Z</time>
      </trkpt>
      <trkpt lat="49.67043" lon="5.89089">
        <ele>311.20001220703</ele>
        <time>2020-10-25T09:36:47.000Z</time>
      </trkpt>
      <trkpt lat="49.67028" lon="5.89111">
        <ele>312.60000610352</ele>
        <time>2020-10-25T09:36:54.000Z</time>
      </trkpt>
      <trkpt lat="49.67009" lon="5.89113">
        <ele>312.39999389648</ele>
        <time>2020-10-25T09:37:01.000Z</time>
      </trkpt>
      <trkpt lat="49.66989" lon="5.89117">
        <ele>311.20001220703</ele>
        <time>2020-10-25T09:37:10.000Z</time>
      </trkpt>
      <trkpt lat="49.66976" lon="5.89121">
        <ele>310.60000610352</ele>
        <time>2020-10-25T09:37:16.000Z</time>
      </trkpt>
      <trkpt lat="49.66958" lon="5.89125">
        <ele>309.39999389648</ele>
        <time>2020-10-25T09:37:24.000Z</time>
      </trkpt>
      <trkpt lat="49.66938" lon="5.89126">
        <ele>309</ele>
        <time>2020-10-25T09:37:32.000Z</time>
      </trkpt>
      <trkpt lat="49.66918" lon="5.89126">
        <ele>308</ele>
        <time>2020-10-25T09:37:39.000Z</time>
      </trkpt>
      <trkpt lat="49.66898" lon="5.89126">
        <ele>307</ele>
        <time>2020-10-25T09:37:47.000Z</time>
      </trkpt>
      <trkpt lat="49.66888" lon="5.89127">
        <ele>306.60000610352</ele>
        <time>2020-10-25T09:37:51.000Z</time>
      </trkpt>
      <trkpt lat="49.66868" lon="5.89134">
        <ele>306</ele>
        <time>2020-10-25T09:37:58.000Z</time>
      </trkpt>
      <trkpt lat="49.66847" lon="5.89138">
        <ele>305.20001220703</ele>
        <time>2020-10-25T09:38:05.000Z</time>
      </trkpt>
      <trkpt lat="49.66829" lon="5.89145">
        <ele>304.60000610352</ele>
        <time>2020-10-25T09:38:12.000Z</time>
      </trkpt>
      <trkpt lat="49.66812" lon="5.89153">
        <ele>304.60000610352</ele>
        <time>2020-10-25T09:38:19.000Z</time>
      </trkpt>
      <trkpt lat="49.66798" lon="5.89171">
        <ele>304.60000610352</ele>
        <time>2020-10-25T09:38:25.000Z</time>
      </trkpt>
      <trkpt lat="49.66783" lon="5.89192">
        <ele>304.20001220703</ele>
        <time>2020-10-25T09:38:32.000Z</time>
      </trkpt>
      <trkpt lat="49.66768" lon="5.89211">
        <ele>305.79998779297</ele>
        <time>2020-10-25T09:38:41.000Z</time>
      </trkpt>
      <trkpt lat="49.66749" lon="5.89218">
        <ele>304.60000610352</ele>
        <time>2020-10-25T09:38:52.000Z</time>
      </trkpt>
      <trkpt lat="49.66739" lon="5.89225">
        <ele>304</ele>
        <time>2020-10-25T09:39:00.000Z</time>
      </trkpt>
      <trkpt lat="49.66737" lon="5.89226">
        <ele>304</ele>
        <time>2020-10-25T09:39:01.000Z</time>
      </trkpt>
      <trkpt lat="49.66719" lon="5.89238">
        <ele>304</ele>
        <time>2020-10-25T09:39:11.000Z</time>
      </trkpt>
      <trkpt lat="49.66703" lon="5.89258">
        <ele>301.39999389648</ele>
        <time>2020-10-25T09:39:19.000Z</time>
      </trkpt>
      <trkpt lat="49.66691" lon="5.89282">
        <ele>304.39999389648</ele>
        <time>2020-10-25T09:39:26.000Z</time>
      </trkpt>
      <trkpt lat="49.66686" lon="5.8931">
        <ele>305</ele>
        <time>2020-10-25T09:39:35.000Z</time>
      </trkpt>
      <trkpt lat="49.66694" lon="5.89338">
        <ele>306.39999389648</ele>
        <time>2020-10-25T09:39:45.000Z</time>
      </trkpt>
      <trkpt lat="49.66711" lon="5.89351">
        <ele>305.39999389648</ele>
        <time>2020-10-25T09:39:55.000Z</time>
      </trkpt>
      <trkpt lat="49.66729" lon="5.89359">
        <ele>306.60000610352</ele>
        <time>2020-10-25T09:40:04.000Z</time>
      </trkpt>
      <trkpt lat="49.66747" lon="5.89367">
        <ele>307.79998779297</ele>
        <time>2020-10-25T09:40:12.000Z</time>
      </trkpt>
      <trkpt lat="49.66764" lon="5.89375">
        <ele>308.79998779297</ele>
        <time>2020-10-25T09:40:19.000Z</time>
      </trkpt>
      <trkpt lat="49.6678" lon="5.89386">
        <ele>310.39999389648</ele>
        <time>2020-10-25T09:40:28.000Z</time>
      </trkpt>
      <trkpt lat="49.66786" lon="5.89392">
        <ele>311</ele>
        <time>2020-10-25T09:40:32.000Z</time>
      </trkpt>
      <trkpt lat="49.66804" lon="5.89406">
        <ele>311.79998779297</ele>
        <time>2020-10-25T09:40:40.000Z</time>
      </trkpt>
      <trkpt lat="49.6682" lon="5.89424">
        <ele>312.60000610352</ele>
        <time>2020-10-25T09:40:49.000Z</time>
      </trkpt>
      <trkpt lat="49.66836" lon="5.89444">
        <ele>313.39999389648</ele>
        <time>2020-10-25T09:40:57.000Z</time>
      </trkpt>
      <trkpt lat="49.66851" lon="5.89462">
        <ele>314.20001220703</ele>
        <time>2020-10-25T09:41:04.000Z</time>
      </trkpt>
      <trkpt lat="49.66864" lon="5.89483">
        <ele>313.79998779297</ele>
        <time>2020-10-25T09:41:11.000Z</time>
      </trkpt>
      <trkpt lat="49.66876" lon="5.89507">
        <ele>312.60000610352</ele>
        <time>2020-10-25T09:41:19.000Z</time>
      </trkpt>
      <trkpt lat="49.66886" lon="5.89531">
        <ele>312</ele>
        <time>2020-10-25T09:41:26.000Z</time>
      </trkpt>
      <trkpt lat="49.66886" lon="5.89562">
        <ele>309.60000610352</ele>
        <time>2020-10-25T09:41:33.000Z</time>
      </trkpt>
      <trkpt lat="49.66882" lon="5.89591">
        <ele>307.60000610352</ele>
        <time>2020-10-25T09:41:41.000Z</time>
      </trkpt>
      <trkpt lat="49.66879" lon="5.8962">
        <ele>305.39999389648</ele>
        <time>2020-10-25T09:41:50.000Z</time>
      </trkpt>
      <trkpt lat="49.66873" lon="5.89646">
        <ele>303</ele>
        <time>2020-10-25T09:42:00.000Z</time>
      </trkpt>
      <trkpt lat="49.66871" lon="5.8965">
        <ele>303</ele>
        <time>2020-10-25T09:42:02.000Z</time>
      </trkpt>
      <trkpt lat="49.66872" lon="5.8967">
        <ele>304.20001220703</ele>
        <time>2020-10-25T09:42:11.000Z</time>
      </trkpt>
      <trkpt lat="49.66877" lon="5.89683">
        <ele>305.79998779297</ele>
        <time>2020-10-25T09:42:19.000Z</time>
      </trkpt>
      <trkpt lat="49.66882" lon="5.89697">
        <ele>307.60000610352</ele>
        <time>2020-10-25T09:42:27.000Z</time>
      </trkpt>
      <trkpt lat="49.66884" lon="5.897">
        <ele>308</ele>
        <time>2020-10-25T09:42:29.000Z</time>
      </trkpt>
      <trkpt lat="49.66887" lon="5.8971">
        <ele>309</ele>
        <time>2020-10-25T09:42:34.000Z</time>
      </trkpt>
      <trkpt lat="49.66891" lon="5.89721">
        <ele>310.39999389648</ele>
        <time>2020-10-25T09:42:39.000Z</time>
      </trkpt>
      <trkpt lat="49.66895" lon="5.89743">
        <ele>311.60000610352</ele>
        <time>2020-10-25T09:42:48.000Z</time>
      </trkpt>
      <trkpt lat="49.66893" lon="5.89751">
        <ele>311.60000610352</ele>
        <time>2020-10-25T09:42:52.000Z</time>
      </trkpt>
      <trkpt lat="49.66891" lon="5.89754">
        <ele>311.60000610352</ele>
        <time>2020-10-25T09:42:54.000Z</time>
      </trkpt>
      <trkpt lat="49.66887" lon="5.89758">
        <ele>311.20001220703</ele>
        <time>2020-10-25T09:42:59.000Z</time>
      </trkpt>
      <trkpt lat="49.66877" lon="5.89756">
        <ele>309.60000610352</ele>
        <time>2020-10-25T09:43:06.000Z</time>
      </trkpt>
      <trkpt lat="49.66872" lon="5.89756">
        <ele>309</ele>
        <time>2020-10-25T09:43:10.000Z</time>
      </trkpt>
      <trkpt lat="49.6687" lon="5.89757">
        <ele>308.60000610352</ele>
        <time>2020-10-25T09:43:12.000Z</time>
      </trkpt>
      <trkpt lat="49.66868" lon="5.89757">
        <ele>308.60000610352</ele>
        <time>2020-10-25T09:43:13.000Z</time>
      </trkpt>
      <trkpt lat="49.6686" lon="5.89762">
        <ele>308</ele>
        <time>2020-10-25T09:43:19.000Z</time>
      </trkpt>
      <trkpt lat="49.66859" lon="5.89763">
        <ele>308</ele>
        <time>2020-10-25T09:43:20.000Z</time>
      </trkpt>
      <trkpt lat="49.6685" lon="5.89778">
        <ele>308</ele>
        <time>2020-10-25T09:43:30.000Z</time>
      </trkpt>
      <trkpt lat="49.66846" lon="5.89795">
        <ele>307.60000610352</ele>
        <time>2020-10-25T09:43:40.000Z</time>
      </trkpt>
      <trkpt lat="49.66843" lon="5.89812">
        <ele>307</ele>
        <time>2020-10-25T09:43:49.000Z</time>
      </trkpt>
      <trkpt lat="49.66841" lon="5.8983">
        <ele>307.39999389648</ele>
        <time>2020-10-25T09:43:57.000Z</time>
      </trkpt>
      <trkpt lat="49.66838" lon="5.89856">
        <ele>307.79998779297</ele>
        <time>2020-10-25T09:44:07.000Z</time>
      </trkpt>
      <trkpt lat="49.66837" lon="5.89875">
        <ele>308.39999389648</ele>
        <time>2020-10-25T09:44:17.000Z</time>
      </trkpt>
      <trkpt lat="49.66834" lon="5.89887">
        <ele>308.39999389648</ele>
        <time>2020-10-25T09:44:25.000Z</time>
      </trkpt>
      <trkpt lat="49.66834" lon="5.89891">
        <ele>308.60000610352</ele>
        <time>2020-10-25T09:44:27.000Z</time>
      </trkpt>
      <trkpt lat="49.66833" lon="5.89904">
        <ele>308.79998779297</ele>
        <time>2020-10-25T09:44:33.000Z</time>
      </trkpt>
      <trkpt lat="49.66832" lon="5.89911">
        <ele>309</ele>
        <time>2020-10-25T09:44:37.000Z</time>
      </trkpt>
      <trkpt lat="49.66833" lon="5.8994">
        <ele>310</ele>
        <time>2020-10-25T09:44:49.000Z</time>
      </trkpt>
      <trkpt lat="49.66836" lon="5.89957">
        <ele>311</ele>
        <time>2020-10-25T09:44:55.000Z</time>
      </trkpt>
      <trkpt lat="49.66838" lon="5.89967">
        <ele>311.39999389648</ele>
        <time>2020-10-25T09:44:59.000Z</time>
      </trkpt>
      <trkpt lat="49.66841" lon="5.89996">
        <ele>311.39999389648</ele>
        <time>2020-10-25T09:45:09.000Z</time>
      </trkpt>
      <trkpt lat="49.66842" lon="5.90002">
        <ele>311.39999389648</ele>
        <time>2020-10-25T09:45:12.000Z</time>
      </trkpt>
      <trkpt lat="49.6685" lon="5.90028">
        <ele>311.79998779297</ele>
        <time>2020-10-25T09:45:20.000Z</time>
      </trkpt>
      <trkpt lat="49.66851" lon="5.90035">
        <ele>311.60000610352</ele>
        <time>2020-10-25T09:45:22.000Z</time>
      </trkpt>
      <trkpt lat="49.66858" lon="5.90062">
        <ele>312.39999389648</ele>
        <time>2020-10-25T09:45:30.000Z</time>
      </trkpt>
      <trkpt lat="49.66869" lon="5.90087">
        <ele>312.60000610352</ele>
        <time>2020-10-25T09:45:39.000Z</time>
      </trkpt>
      <trkpt lat="49.66871" lon="5.9009">
        <ele>312.60000610352</ele>
        <time>2020-10-25T09:45:40.000Z</time>
      </trkpt>
      <trkpt lat="49.66884" lon="5.90114">
        <ele>313.20001220703</ele>
        <time>2020-10-25T09:45:48.000Z</time>
      </trkpt>
      <trkpt lat="49.66895" lon="5.9014">
        <ele>313.60000610352</ele>
        <time>2020-10-25T09:45:56.000Z</time>
      </trkpt>
      <trkpt lat="49.66908" lon="5.9016">
        <ele>315.79998779297</ele>
        <time>2020-10-25T09:46:05.000Z</time>
      </trkpt>
      <trkpt lat="49.6692" lon="5.90184">
        <ele>317.79998779297</ele>
        <time>2020-10-25T09:46:13.000Z</time>
      </trkpt>
      <trkpt lat="49.66931" lon="5.9021">
        <ele>320</ele>
        <time>2020-10-25T09:46:21.000Z</time>
      </trkpt>
      <trkpt lat="49.66944" lon="5.90231">
        <ele>322.39999389648</ele>
        <time>2020-10-25T09:46:29.000Z</time>
      </trkpt>
      <trkpt lat="49.66959" lon="5.90251">
        <ele>324.60000610352</ele>
        <time>2020-10-25T09:46:39.000Z</time>
      </trkpt>
      <trkpt lat="49.66961" lon="5.90255">
        <ele>324.79998779297</ele>
        <time>2020-10-25T09:46:41.000Z</time>
      </trkpt>
      <trkpt lat="49.66974" lon="5.90275">
        <ele>326.60000610352</ele>
        <time>2020-10-25T09:46:52.000Z</time>
      </trkpt>
      <trkpt lat="49.66977" lon="5.90281">
        <ele>327</ele>
        <time>2020-10-25T09:46:55.000Z</time>
      </trkpt>
      <trkpt lat="49.66982" lon="5.90287">
        <ele>327.39999389648</ele>
        <time>2020-10-25T09:46:59.000Z</time>
      </trkpt>
      <trkpt lat="49.66991" lon="5.90304">
        <ele>328.79998779297</ele>
        <time>2020-10-25T09:47:07.000Z</time>
      </trkpt>
      <trkpt lat="49.67005" lon="5.90324">
        <ele>329</ele>
        <time>2020-10-25T09:47:15.000Z</time>
      </trkpt>
      <trkpt lat="49.67017" lon="5.90344">
        <ele>329.20001220703</ele>
        <time>2020-10-25T09:47:22.000Z</time>
      </trkpt>
      <trkpt lat="49.67032" lon="5.90365">
        <ele>329.39999389648</ele>
        <time>2020-10-25T09:47:31.000Z</time>
      </trkpt>
      <trkpt lat="49.67045" lon="5.90379">
        <ele>330.20001220703</ele>
        <time>2020-10-25T09:47:37.000Z</time>
      </trkpt>
      <trkpt lat="49.67062" lon="5.90393">
        <ele>332</ele>
        <time>2020-10-25T09:47:46.000Z</time>
      </trkpt>
      <trkpt lat="49.67066" lon="5.90397">
        <ele>332.39999389648</ele>
        <time>2020-10-25T09:47:49.000Z</time>
      </trkpt>
      <trkpt lat="49.67083" lon="5.90411">
        <ele>334</ele>
        <time>2020-10-25T09:48:01.000Z</time>
      </trkpt>
      <trkpt lat="49.67086" lon="5.90413">
        <ele>334.39999389648</ele>
        <time>2020-10-25T09:48:03.000Z</time>
      </trkpt>
      <trkpt lat="49.67097" lon="5.90422">
        <ele>335.60000610352</ele>
        <time>2020-10-25T09:48:10.000Z</time>
      </trkpt>
      <trkpt lat="49.67112" lon="5.90439">
        <ele>337</ele>
        <time>2020-10-25T09:48:23.000Z</time>
      </trkpt>
      <trkpt lat="49.67113" lon="5.90467">
        <ele>336.39999389648</ele>
        <time>2020-10-25T09:48:30.000Z</time>
      </trkpt>
      <trkpt lat="49.67119" lon="5.90496">
        <ele>337.79998779297</ele>
        <time>2020-10-25T09:48:38.000Z</time>
      </trkpt>
      <trkpt lat="49.67122" lon="5.90525">
        <ele>339</ele>
        <time>2020-10-25T09:48:45.000Z</time>
      </trkpt>
      <trkpt lat="49.67122" lon="5.90542">
        <ele>339.79998779297</ele>
        <time>2020-10-25T09:48:50.000Z</time>
      </trkpt>
      <trkpt lat="49.67119" lon="5.9055">
        <ele>339.79998779297</ele>
        <time>2020-10-25T09:48:54.000Z</time>
      </trkpt>
      <trkpt lat="49.67117" lon="5.90554">
        <ele>339.60000610352</ele>
        <time>2020-10-25T09:48:57.000Z</time>
      </trkpt>
      <trkpt lat="49.67113" lon="5.9056">
        <ele>339.39999389648</ele>
        <time>2020-10-25T09:49:01.000Z</time>
      </trkpt>
      <trkpt lat="49.67109" lon="5.90567">
        <ele>339.20001220703</ele>
        <time>2020-10-25T09:49:05.000Z</time>
      </trkpt>
      <trkpt lat="49.67106" lon="5.90575">
        <ele>339.20001220703</ele>
        <time>2020-10-25T09:49:09.000Z</time>
      </trkpt>
      <trkpt lat="49.67103" lon="5.90581">
        <ele>339</ele>
        <time>2020-10-25T09:49:13.000Z</time>
      </trkpt>
      <trkpt lat="49.67102" lon="5.90582">
        <ele>339</ele>
        <time>2020-10-25T09:49:15.000Z</time>
      </trkpt>
      <trkpt lat="49.67101" lon="5.90584">
        <ele>339</ele>
        <time>2020-10-25T09:49:16.000Z</time>
      </trkpt>
      <trkpt lat="49.671" lon="5.90585">
        <ele>339</ele>
        <time>2020-10-25T09:49:17.000Z</time>
      </trkpt>
      <trkpt lat="49.67097" lon="5.90589">
        <ele>338.60000610352</ele>
        <time>2020-10-25T09:49:20.000Z</time>
      </trkpt>
      <trkpt lat="49.67093" lon="5.90594">
        <ele>338.39999389648</ele>
        <time>2020-10-25T09:49:24.000Z</time>
      </trkpt>
      <trkpt lat="49.67086" lon="5.90596">
        <ele>337.79998779297</ele>
        <time>2020-10-25T09:49:29.000Z</time>
      </trkpt>
      <trkpt lat="49.67082" lon="5.90596">
        <ele>337.39999389648</ele>
        <time>2020-10-25T09:49:32.000Z</time>
      </trkpt>
      <trkpt lat="49.67066" lon="5.90608">
        <ele>335.79998779297</ele>
        <time>2020-10-25T09:49:43.000Z</time>
      </trkpt>
      <trkpt lat="49.67049" lon="5.9062">
        <ele>334</ele>
        <time>2020-10-25T09:49:51.000Z</time>
      </trkpt>
      <trkpt lat="49.67038" lon="5.90644">
        <ele>333.20001220703</ele>
        <time>2020-10-25T09:49:58.000Z</time>
      </trkpt>
      <trkpt lat="49.67038" lon="5.90673">
        <ele>334</ele>
        <time>2020-10-25T09:50:06.000Z</time>
      </trkpt>
      <trkpt lat="49.67044" lon="5.90702">
        <ele>335.39999389648</ele>
        <time>2020-10-25T09:50:15.000Z</time>
      </trkpt>
      <trkpt lat="49.67045" lon="5.90728">
        <ele>336.20001220703</ele>
        <time>2020-10-25T09:50:22.000Z</time>
      </trkpt>
      <trkpt lat="49.67037" lon="5.90756">
        <ele>337.39999389648</ele>
        <time>2020-10-25T09:50:30.000Z</time>
      </trkpt>
      <trkpt lat="49.6704" lon="5.90784">
        <ele>339.79998779297</ele>
        <time>2020-10-25T09:50:40.000Z</time>
      </trkpt>
      <trkpt lat="49.67044" lon="5.90798">
        <ele>341.20001220703</ele>
        <time>2020-10-25T09:50:48.000Z</time>
      </trkpt>
      <trkpt lat="49.67047" lon="5.90826">
        <ele>342.79998779297</ele>
        <time>2020-10-25T09:51:01.000Z</time>
      </trkpt>
      <trkpt lat="49.67046" lon="5.90827">
        <ele>342.79998779297</ele>
        <time>2020-10-25T09:51:02.000Z</time>
      </trkpt>
      <trkpt lat="49.67028" lon="5.90831">
        <ele>341.79998779297</ele>
        <time>2020-10-25T09:51:11.000Z</time>
      </trkpt>
      <trkpt lat="49.67021" lon="5.90833">
        <ele>341</ele>
        <time>2020-10-25T09:51:14.000Z</time>
      </trkpt>
      <trkpt lat="49.6701" lon="5.90837">
        <ele>340</ele>
        <time>2020-10-25T09:51:19.000Z</time>
      </trkpt>
      <trkpt lat="49.67001" lon="5.90839">
        <ele>339</ele>
        <time>2020-10-25T09:51:23.000Z</time>
      </trkpt>
      <trkpt lat="49.6699" lon="5.90843">
        <ele>338</ele>
        <time>2020-10-25T09:51:27.000Z</time>
      </trkpt>
      <trkpt lat="49.66979" lon="5.90848">
        <ele>336.79998779297</ele>
        <time>2020-10-25T09:51:31.000Z</time>
      </trkpt>
      <trkpt lat="49.66971" lon="5.90851">
        <ele>336</ele>
        <time>2020-10-25T09:51:34.000Z</time>
      </trkpt>
      <trkpt lat="49.66962" lon="5.90857">
        <ele>335.20001220703</ele>
        <time>2020-10-25T09:51:37.000Z</time>
      </trkpt>
      <trkpt lat="49.66947" lon="5.90868">
        <ele>334.39999389648</ele>
        <time>2020-10-25T09:51:43.000Z</time>
      </trkpt>
      <trkpt lat="49.6693" lon="5.90879">
        <ele>333.79998779297</ele>
        <time>2020-10-25T09:51:51.000Z</time>
      </trkpt>
      <trkpt lat="49.66927" lon="5.90882">
        <ele>333.39999389648</ele>
        <time>2020-10-25T09:51:53.000Z</time>
      </trkpt>
      <trkpt lat="49.66908" lon="5.90896">
        <ele>332</ele>
        <time>2020-10-25T09:52:00.000Z</time>
      </trkpt>
      <trkpt lat="49.66895" lon="5.90907">
        <ele>331.60000610352</ele>
        <time>2020-10-25T09:52:05.000Z</time>
      </trkpt>
      <trkpt lat="49.66885" lon="5.90917">
        <ele>331</ele>
        <time>2020-10-25T09:52:10.000Z</time>
      </trkpt>
      <trkpt lat="49.66874" lon="5.90936">
        <ele>330.20001220703</ele>
        <time>2020-10-25T09:52:19.000Z</time>
      </trkpt>
      <trkpt lat="49.66878" lon="5.90956">
        <ele>331.39999389648</ele>
        <time>2020-10-25T09:52:28.000Z</time>
      </trkpt>
      <trkpt lat="49.66888" lon="5.90979">
        <ele>333.39999389648</ele>
        <time>2020-10-25T09:52:42.000Z</time>
      </trkpt>
      <trkpt lat="49.66893" lon="5.90986">
        <ele>334</ele>
        <time>2020-10-25T09:52:46.000Z</time>
      </trkpt>
      <trkpt lat="49.66904" lon="5.91009">
        <ele>335.60000610352</ele>
        <time>2020-10-25T09:53:00.000Z</time>
      </trkpt>
      <trkpt lat="49.66908" lon="5.91017">
        <ele>336.20001220703</ele>
        <time>2020-10-25T09:53:05.000Z</time>
      </trkpt>
      <trkpt lat="49.66918" lon="5.91041">
        <ele>337.39999389648</ele>
        <time>2020-10-25T09:53:14.000Z</time>
      </trkpt>
      <trkpt lat="49.66923" lon="5.91053">
        <ele>338.20001220703</ele>
        <time>2020-10-25T09:53:18.000Z</time>
      </trkpt>
      <trkpt lat="49.66934" lon="5.91076">
        <ele>340</ele>
        <time>2020-10-25T09:53:25.000Z</time>
      </trkpt>
      <trkpt lat="49.66943" lon="5.91098">
        <ele>341.79998779297</ele>
        <time>2020-10-25T09:53:32.000Z</time>
      </trkpt>
      <trkpt lat="49.66954" lon="5.91123">
        <ele>343.60000610352</ele>
        <time>2020-10-25T09:53:40.000Z</time>
      </trkpt>
      <trkpt lat="49.66965" lon="5.91148">
        <ele>344.39999389648</ele>
        <time>2020-10-25T09:53:48.000Z</time>
      </trkpt>
      <trkpt lat="49.66967" lon="5.91153">
        <ele>344.60000610352</ele>
        <time>2020-10-25T09:53:50.000Z</time>
      </trkpt>
      <trkpt lat="49.66982" lon="5.91175">
        <ele>344.79998779297</ele>
        <time>2020-10-25T09:53:57.000Z</time>
      </trkpt>
      <trkpt lat="49.66992" lon="5.91203">
        <ele>344.60000610352</ele>
        <time>2020-10-25T09:54:12.000Z</time>
      </trkpt>
      <trkpt lat="49.66978" lon="5.91224">
        <ele>342.79998779297</ele>
        <time>2020-10-25T09:54:27.000Z</time>
      </trkpt>
      <trkpt lat="49.66961" lon="5.91237">
        <ele>341.20001220703</ele>
        <time>2020-10-25T09:54:38.000Z</time>
      </trkpt>
      <trkpt lat="49.66952" lon="5.91244">
        <ele>340</ele>
        <time>2020-10-25T09:54:42.000Z</time>
      </trkpt>
      <trkpt lat="49.66943" lon="5.91253">
        <ele>338.39999389648</ele>
        <time>2020-10-25T09:54:46.000Z</time>
      </trkpt>
      <trkpt lat="49.66934" lon="5.91262">
        <ele>336.79998779297</ele>
        <time>2020-10-25T09:54:50.000Z</time>
      </trkpt>
      <trkpt lat="49.66927" lon="5.91269">
        <ele>335.60000610352</ele>
        <time>2020-10-25T09:54:53.000Z</time>
      </trkpt>
      <trkpt lat="49.6692" lon="5.91276">
        <ele>334.60000610352</ele>
        <time>2020-10-25T09:54:56.000Z</time>
      </trkpt>
      <trkpt lat="49.66914" lon="5.91285">
        <ele>333.79998779297</ele>
        <time>2020-10-25T09:54:59.000Z</time>
      </trkpt>
      <trkpt lat="49.66908" lon="5.91292">
        <ele>333</ele>
        <time>2020-10-25T09:55:02.000Z</time>
      </trkpt>
      <trkpt lat="49.66901" lon="5.91301">
        <ele>332.20001220703</ele>
        <time>2020-10-25T09:55:06.000Z</time>
      </trkpt>
      <trkpt lat="49.66893" lon="5.91313">
        <ele>331.20001220703</ele>
        <time>2020-10-25T09:55:11.000Z</time>
      </trkpt>
      <trkpt lat="49.66885" lon="5.91323">
        <ele>330.39999389648</ele>
        <time>2020-10-25T09:55:15.000Z</time>
      </trkpt>
      <trkpt lat="49.66884" lon="5.9133">
        <ele>331</ele>
        <time>2020-10-25T09:55:17.000Z</time>
      </trkpt>
      <trkpt lat="49.66888" lon="5.91357">
        <ele>333.20001220703</ele>
        <time>2020-10-25T09:55:25.000Z</time>
      </trkpt>
      <trkpt lat="49.6689" lon="5.91366">
        <ele>334</ele>
        <time>2020-10-25T09:55:28.000Z</time>
      </trkpt>
      <trkpt lat="49.66891" lon="5.9138">
        <ele>335</ele>
        <time>2020-10-25T09:55:33.000Z</time>
      </trkpt>
      <trkpt lat="49.66874" lon="5.91395">
        <ele>336.20001220703</ele>
        <time>2020-10-25T09:55:43.000Z</time>
      </trkpt>
      <trkpt lat="49.66858" lon="5.91411">
        <ele>337.60000610352</ele>
        <time>2020-10-25T09:55:51.000Z</time>
      </trkpt>
      <trkpt lat="49.6685" lon="5.9142">
        <ele>338.20001220703</ele>
        <time>2020-10-25T09:55:55.000Z</time>
      </trkpt>
      <trkpt lat="49.66845" lon="5.91431">
        <ele>339</ele>
        <time>2020-10-25T09:55:59.000Z</time>
      </trkpt>
      <trkpt lat="49.6684" lon="5.91439">
        <ele>339.60000610352</ele>
        <time>2020-10-25T09:56:03.000Z</time>
      </trkpt>
      <trkpt lat="49.66839" lon="5.91444">
        <ele>339.79998779297</ele>
        <time>2020-10-25T09:56:07.000Z</time>
      </trkpt>
      <trkpt lat="49.6684" lon="5.91455">
        <ele>340</ele>
        <time>2020-10-25T09:56:15.000Z</time>
      </trkpt>
      <trkpt lat="49.6684" lon="5.91462">
        <ele>340</ele>
        <time>2020-10-25T09:56:19.000Z</time>
      </trkpt>
      <trkpt lat="49.66844" lon="5.91478">
        <ele>340</ele>
        <time>2020-10-25T09:56:29.000Z</time>
      </trkpt>
      <trkpt lat="49.66855" lon="5.91503">
        <ele>340.39999389648</ele>
        <time>2020-10-25T09:56:42.000Z</time>
      </trkpt>
      <trkpt lat="49.66867" lon="5.91524">
        <ele>341</ele>
        <time>2020-10-25T09:56:53.000Z</time>
      </trkpt>
      <trkpt lat="49.6688" lon="5.91547">
        <ele>341.20001220703</ele>
        <time>2020-10-25T09:57:04.000Z</time>
      </trkpt>
      <trkpt lat="49.66881" lon="5.91552">
        <ele>341.20001220703</ele>
        <time>2020-10-25T09:57:07.000Z</time>
      </trkpt>
      <trkpt lat="49.66883" lon="5.9156">
        <ele>341.20001220703</ele>
        <time>2020-10-25T09:57:11.000Z</time>
      </trkpt>
      <trkpt lat="49.66881" lon="5.91562">
        <ele>341</ele>
        <time>2020-10-25T09:57:13.000Z</time>
      </trkpt>
      <trkpt lat="49.66879" lon="5.91563">
        <ele>341</ele>
        <time>2020-10-25T09:57:15.000Z</time>
      </trkpt>
      <trkpt lat="49.66876" lon="5.91568">
        <ele>341</ele>
        <time>2020-10-25T09:57:19.000Z</time>
      </trkpt>
      <trkpt lat="49.66866" lon="5.91574">
        <ele>340.60000610352</ele>
        <time>2020-10-25T09:57:28.000Z</time>
      </trkpt>
      <trkpt lat="49.6686" lon="5.91547">
        <ele>340.60000610352</ele>
        <time>2020-10-25T09:57:41.000Z</time>
      </trkpt>
      <trkpt lat="49.66851" lon="5.91523">
        <ele>340.39999389648</ele>
        <time>2020-10-25T09:57:49.000Z</time>
      </trkpt>
      <trkpt lat="49.66845" lon="5.91511">
        <ele>340.20001220703</ele>
        <time>2020-10-25T09:57:53.000Z</time>
      </trkpt>
      <trkpt lat="49.66831" lon="5.91489">
        <ele>339.60000610352</ele>
        <time>2020-10-25T09:58:00.000Z</time>
      </trkpt>
      <trkpt lat="49.66818" lon="5.91468">
        <ele>339.20001220703</ele>
        <time>2020-10-25T09:58:07.000Z</time>
      </trkpt>
      <trkpt lat="49.66812" lon="5.91455">
        <ele>339</ele>
        <time>2020-10-25T09:58:11.000Z</time>
      </trkpt>
      <trkpt lat="49.66801" lon="5.9143">
        <ele>338.60000610352</ele>
        <time>2020-10-25T09:58:18.000Z</time>
      </trkpt>
      <trkpt lat="49.66786" lon="5.91409">
        <ele>338</ele>
        <time>2020-10-25T09:58:26.000Z</time>
      </trkpt>
      <trkpt lat="49.66785" lon="5.91407">
        <ele>337.79998779297</ele>
        <time>2020-10-25T09:58:27.000Z</time>
      </trkpt>
      <trkpt lat="49.6677" lon="5.91387">
        <ele>336</ele>
        <time>2020-10-25T09:58:39.000Z</time>
      </trkpt>
      <trkpt lat="49.66757" lon="5.91365">
        <ele>334.39999389648</ele>
        <time>2020-10-25T09:58:47.000Z</time>
      </trkpt>
      <trkpt lat="49.66739" lon="5.91363">
        <ele>332.39999389648</ele>
        <time>2020-10-25T09:58:57.000Z</time>
      </trkpt>
      <trkpt lat="49.66724" lon="5.91379">
        <ele>330.60000610352</ele>
        <time>2020-10-25T09:59:07.000Z</time>
      </trkpt>
      <trkpt lat="49.66721" lon="5.91383">
        <ele>330.20001220703</ele>
        <time>2020-10-25T09:59:09.000Z</time>
      </trkpt>
      <trkpt lat="49.66707" lon="5.91402">
        <ele>328.60000610352</ele>
        <time>2020-10-25T09:59:19.000Z</time>
      </trkpt>
      <trkpt lat="49.66705" lon="5.91407">
        <ele>328.39999389648</ele>
        <time>2020-10-25T09:59:21.000Z</time>
      </trkpt>
      <trkpt lat="49.66691" lon="5.91428">
        <ele>327.39999389648</ele>
        <time>2020-10-25T09:59:30.000Z</time>
      </trkpt>
      <trkpt lat="49.66684" lon="5.91436">
        <ele>327</ele>
        <time>2020-10-25T09:59:33.000Z</time>
      </trkpt>
      <trkpt lat="49.66675" lon="5.91446">
        <ele>326.39999389648</ele>
        <time>2020-10-25T09:59:38.000Z</time>
      </trkpt>
      <trkpt lat="49.66671" lon="5.9145">
        <ele>326</ele>
        <time>2020-10-25T09:59:40.000Z</time>
      </trkpt>
      <trkpt lat="49.66657" lon="5.91473">
        <ele>324.60000610352</ele>
        <time>2020-10-25T09:59:47.000Z</time>
      </trkpt>
      <trkpt lat="49.66647" lon="5.91491">
        <ele>323.39999389648</ele>
        <time>2020-10-25T09:59:54.000Z</time>
      </trkpt>
      <trkpt lat="49.66639" lon="5.91503">
        <ele>322.60000610352</ele>
        <time>2020-10-25T09:59:59.000Z</time>
      </trkpt>
      <trkpt lat="49.66627" lon="5.91516">
        <ele>321.60000610352</ele>
        <time>2020-10-25T10:00:04.000Z</time>
      </trkpt>
      <trkpt lat="49.6661" lon="5.91525">
        <ele>320.60000610352</ele>
        <time>2020-10-25T10:00:11.000Z</time>
      </trkpt>
      <trkpt lat="49.66607" lon="5.91526">
        <ele>320.60000610352</ele>
        <time>2020-10-25T10:00:12.000Z</time>
      </trkpt>
      <trkpt lat="49.66589" lon="5.91533">
        <ele>320</ele>
        <time>2020-10-25T10:00:19.000Z</time>
      </trkpt>
      <trkpt lat="49.66572" lon="5.91548">
        <ele>319.39999389648</ele>
        <time>2020-10-25T10:00:26.000Z</time>
      </trkpt>
      <trkpt lat="49.66557" lon="5.91564">
        <ele>318.79998779297</ele>
        <time>2020-10-25T10:00:34.000Z</time>
      </trkpt>
      <trkpt lat="49.66539" lon="5.91555">
        <ele>318</ele>
        <time>2020-10-25T10:00:42.000Z</time>
      </trkpt>
      <trkpt lat="49.66531" lon="5.91544">
        <ele>318</ele>
        <time>2020-10-25T10:00:46.000Z</time>
      </trkpt>
      <trkpt lat="49.66516" lon="5.91528">
        <ele>317.79998779297</ele>
        <time>2020-10-25T10:00:53.000Z</time>
      </trkpt>
      <trkpt lat="49.66498" lon="5.91512">
        <ele>317.60000610352</ele>
        <time>2020-10-25T10:01:01.000Z</time>
      </trkpt>
      <trkpt lat="49.66489" lon="5.91505">
        <ele>317.39999389648</ele>
        <time>2020-10-25T10:01:05.000Z</time>
      </trkpt>
      <trkpt lat="49.66478" lon="5.9148">
        <ele>317.39999389648</ele>
        <time>2020-10-25T10:01:13.000Z</time>
      </trkpt>
      <trkpt lat="49.66471" lon="5.91464">
        <ele>317.39999389648</ele>
        <time>2020-10-25T10:01:19.000Z</time>
      </trkpt>
      <trkpt lat="49.66467" lon="5.91453">
        <ele>317.39999389648</ele>
        <time>2020-10-25T10:01:23.000Z</time>
      </trkpt>
      <trkpt lat="49.66476" lon="5.9143">
        <ele>317.79998779297</ele>
        <time>2020-10-25T10:01:31.000Z</time>
      </trkpt>
      <trkpt lat="49.66468" lon="5.91403">
        <ele>318</ele>
        <time>2020-10-25T10:01:39.000Z</time>
      </trkpt>
      <trkpt lat="49.66465" lon="5.91374">
        <ele>318.60000610352</ele>
        <time>2020-10-25T10:01:47.000Z</time>
      </trkpt>
      <trkpt lat="49.66468" lon="5.91346">
        <ele>319.20001220703</ele>
        <time>2020-10-25T10:01:55.000Z</time>
      </trkpt>
      <trkpt lat="49.66468" lon="5.91325">
        <ele>319.79998779297</ele>
        <time>2020-10-25T10:02:02.000Z</time>
      </trkpt>
      <trkpt lat="49.66463" lon="5.91294">
        <ele>319.60000610352</ele>
        <time>2020-10-25T10:02:10.000Z</time>
      </trkpt>
      <trkpt lat="49.66459" lon="5.91265">
        <ele>319</ele>
        <time>2020-10-25T10:02:17.000Z</time>
      </trkpt>
      <trkpt lat="49.66454" lon="5.91238">
        <ele>318.39999389648</ele>
        <time>2020-10-25T10:02:25.000Z</time>
      </trkpt>
      <trkpt lat="49.66446" lon="5.91212">
        <ele>317</ele>
        <time>2020-10-25T10:02:32.000Z</time>
      </trkpt>
      <trkpt lat="49.66436" lon="5.91187">
        <ele>315</ele>
        <time>2020-10-25T10:02:39.000Z</time>
      </trkpt>
      <trkpt lat="49.66429" lon="5.91162">
        <ele>313.39999389648</ele>
        <time>2020-10-25T10:02:46.000Z</time>
      </trkpt>
      <trkpt lat="49.66428" lon="5.91152">
        <ele>312.79998779297</ele>
        <time>2020-10-25T10:02:49.000Z</time>
      </trkpt>
      <trkpt lat="49.66433" lon="5.91134">
        <ele>312.60000610352</ele>
        <time>2020-10-25T10:02:54.000Z</time>
      </trkpt>
      <trkpt lat="49.66437" lon="5.91121">
        <ele>313</ele>
        <time>2020-10-25T10:02:58.000Z</time>
      </trkpt>
      <trkpt lat="49.66438" lon="5.91114">
        <ele>312.39999389648</ele>
        <time>2020-10-25T10:03:00.000Z</time>
      </trkpt>
      <trkpt lat="49.66436" lon="5.91109">
        <ele>312.20001220703</ele>
        <time>2020-10-25T10:03:02.000Z</time>
      </trkpt>
      <trkpt lat="49.66433" lon="5.91106">
        <ele>312</ele>
        <time>2020-10-25T10:03:04.000Z</time>
      </trkpt>
      <trkpt lat="49.66414" lon="5.91109">
        <ele>312</ele>
        <time>2020-10-25T10:03:14.000Z</time>
      </trkpt>
      <trkpt lat="49.66396" lon="5.91112">
        <ele>310.60000610352</ele>
        <time>2020-10-25T10:03:23.000Z</time>
      </trkpt>
      <trkpt lat="49.66377" lon="5.91117">
        <ele>309.20001220703</ele>
        <time>2020-10-25T10:03:31.000Z</time>
      </trkpt>
      <trkpt lat="49.66359" lon="5.91116">
        <ele>308.79998779297</ele>
        <time>2020-10-25T10:03:38.000Z</time>
      </trkpt>
      <trkpt lat="49.66339" lon="5.91114">
        <ele>308.60000610352</ele>
        <time>2020-10-25T10:03:45.000Z</time>
      </trkpt>
      <trkpt lat="49.66318" lon="5.91112">
        <ele>307.60000610352</ele>
        <time>2020-10-25T10:03:53.000Z</time>
      </trkpt>
      <trkpt lat="49.66307" lon="5.91111">
        <ele>307</ele>
        <time>2020-10-25T10:03:57.000Z</time>
      </trkpt>
      <trkpt lat="49.66289" lon="5.91118">
        <ele>305.39999389648</ele>
        <time>2020-10-25T10:04:04.000Z</time>
      </trkpt>
      <trkpt lat="49.66271" lon="5.91115">
        <ele>305.60000610352</ele>
        <time>2020-10-25T10:04:11.000Z</time>
      </trkpt>
      <trkpt lat="49.66253" lon="5.91108">
        <ele>306.60000610352</ele>
        <time>2020-10-25T10:04:19.000Z</time>
      </trkpt>
      <trkpt lat="49.66234" lon="5.911">
        <ele>308.20001220703</ele>
        <time>2020-10-25T10:04:27.000Z</time>
      </trkpt>
      <trkpt lat="49.66215" lon="5.91096">
        <ele>309.60000610352</ele>
        <time>2020-10-25T10:04:35.000Z</time>
      </trkpt>
      <trkpt lat="49.66196" lon="5.9109">
        <ele>311.20001220703</ele>
        <time>2020-10-25T10:04:43.000Z</time>
      </trkpt>
      <trkpt lat="49.66176" lon="5.9109">
        <ele>312.79998779297</ele>
        <time>2020-10-25T10:04:51.000Z</time>
      </trkpt>
      <trkpt lat="49.66162" lon="5.91095">
        <ele>313.60000610352</ele>
        <time>2020-10-25T10:04:57.000Z</time>
      </trkpt>
      <trkpt lat="49.66148" lon="5.91115">
        <ele>313.79998779297</ele>
        <time>2020-10-25T10:05:08.000Z</time>
      </trkpt>
      <trkpt lat="49.66147" lon="5.91117">
        <ele>313.79998779297</ele>
        <time>2020-10-25T10:05:09.000Z</time>
      </trkpt>
    </trkseg>
  </trk>
</gpx>